sensor_id;sensor_type;location;lat;lon;timestamp;temperature;humidity
10306;DHT22;5198;52.382;9.020;2023-07-22T00:03:07;14.30;99.90
10306;DHT22;5198;52.382;9.020;2023-07-22T00:07:17;14.30;99.90
10306;DHT22;5198;52.382;9.020;2023-07-22T00:11:20;14.20;99.90
10306;DHT22;5198;52.382;9.020;2023-07-22T00:15:24;14.20;99.90
10306;DHT22;5198;52.382;9.020;2023-07-22T00:19:27;14.20;99.90
10306;DHT22;5198;52.382;9.020;2023-07-22T00:23:31;14.10;99.90
10306;DHT22;5198;52.382;9.020;2023-07-22T00:27:34;14.10;99.90
10306;DHT22;5198;52.382;9.020;2023-07-22T00:31:38;14.10;99.90
10306;DHT22;5198;52.382;9.020;2023-07-22T00:35:43;14.10;99.90
10306;DHT22;5198;52.382;9.020;2023-07-22T00:39:50;14.00;99.90
10306;DHT22;5198;52.382;9.020;2023-07-22T00:43:52;14.00;99.90
10306;DHT22;5198;52.382;9.020;2023-07-22T00:47:57;14.00;99.90
10306;DHT22;5198;52.382;9.020;2023-07-22T00:52:01;14.00;99.90
10306;DHT22;5198;52.382;9.020;2023-07-22T00:56:05;13.90;99.90
10306;DHT22;5198;52.382;9.020;2023-07-22T01:00:09;13.90;99.90
10306;DHT22;5198;52.382;9.020;2023-07-22T01:04:15;13.90;99.90
10306;DHT22;5198;52.382;9.020;2023-07-22T01:08:18;13.90;99.90
10306;DHT22;5198;52.382;9.020;2023-07-22T01:12:21;13.80;99.90
10306;DHT22;5198;52.382;9.020;2023-07-22T01:16:24;13.80;99.90
10306;DHT22;5198;52.382;9.020;2023-07-22T01:20:30;13.80;99.90
10306;DHT22;5198;52.382;9.020;2023-07-22T01:24:34;13.80;99.90
10306;DHT22;5198;52.382;9.020;2023-07-22T01:28:38;13.80;99.90
10306;DHT22;5198;52.382;9.020;2023-07-22T01:32:41;13.80;99.90
10306;DHT22;5198;52.382;9.020;2023-07-22T01:36:44;13.80;99.90
10306;DHT22;5198;52.382;9.020;2023-07-22T01:40:48;13.80;99.90
10306;DHT22;5198;52.382;9.020;2023-07-22T01:44:52;13.70;99.90
10306;DHT22;5198;52.382;9.020;2023-07-22T01:48:56;13.70;99.90
10306;DHT22;5198;52.382;9.020;2023-07-22T01:52:59;13.70;99.90
10306;DHT22;5198;52.382;9.020;2023-07-22T01:57:03;13.60;99.90
10306;DHT22;5198;52.382;9.020;2023-07-22T02:01:08;13.60;99.90
10306;DHT22;5198;52.382;9.020;2023-07-22T02:05:11;13.60;99.90
10306;DHT22;5198;52.382;9.020;2023-07-22T02:09:14;13.50;99.90
10306;DHT22;5198;52.382;9.020;2023-07-22T02:21:37;13.40;99.90
10306;DHT22;5198;52.382;9.020;2023-07-22T02:25:40;13.40;99.90
10306;DHT22;5198;52.382;9.020;2023-07-22T02:29:43;13.40;99.90
10306;DHT22;5198;52.382;9.020;2023-07-22T02:33:46;13.40;99.90
10306;DHT22;5198;52.382;9.020;2023-07-22T02:37:50;13.30;99.90
10306;DHT22;5198;52.382;9.020;2023-07-22T02:41:53;13.30;99.90
10306;DHT22;5198;52.382;9.020;2023-07-22T02:45:56;13.30;99.90
10306;DHT22;5198;52.382;9.020;2023-07-22T02:49:59;13.30;99.90
10306;DHT22;5198;52.382;9.020;2023-07-22T02:54:04;13.30;99.90
10306;DHT22;5198;52.382;9.020;2023-07-22T02:58:06;13.30;99.90
10306;DHT22;5198;52.382;9.020;2023-07-22T03:02:09;13.30;99.90
10306;DHT22;5198;52.382;9.020;2023-07-22T03:06:15;13.30;99.90
10306;DHT22;5198;52.382;9.020;2023-07-22T03:10:34;13.30;99.90
10306;DHT22;5198;52.382;9.020;2023-07-22T03:14:37;13.30;99.90
10306;DHT22;5198;52.382;9.020;2023-07-22T03:18:39;13.30;99.90
10306;DHT22;5198;52.382;9.020;2023-07-22T03:22:44;13.30;99.90
10306;DHT22;5198;52.382;9.020;2023-07-22T03:26:49;13.30;99.90
10306;DHT22;5198;52.382;9.020;2023-07-22T03:30:51;13.30;99.90
10306;DHT22;5198;52.382;9.020;2023-07-22T03:34:55;13.30;99.90
10306;DHT22;5198;52.382;9.020;2023-07-22T03:38:58;13.30;99.90
10306;DHT22;5198;52.382;9.020;2023-07-22T03:43:02;13.30;99.90
10306;DHT22;5198;52.382;9.020;2023-07-22T03:51:18;13.30;99.90
10306;DHT22;5198;52.382;9.020;2023-07-22T03:55:21;13.30;99.90
10306;DHT22;5198;52.382;9.020;2023-07-22T03:59:26;13.30;99.90
10306;DHT22;5198;52.382;9.020;2023-07-22T04:03:30;13.30;99.90
10306;DHT22;5198;52.382;9.020;2023-07-22T04:07:40;13.30;99.90
10306;DHT22;5198;52.382;9.020;2023-07-22T04:11:43;13.30;99.90
10306;DHT22;5198;52.382;9.020;2023-07-22T04:15:47;13.30;99.90
10306;DHT22;5198;52.382;9.020;2023-07-22T04:19:50;13.30;99.90
10306;DHT22;5198;52.382;9.020;2023-07-22T04:24:03;13.40;99.90
10306;DHT22;5198;52.382;9.020;2023-07-22T04:28:06;13.40;99.90
10306;DHT22;5198;52.382;9.020;2023-07-22T04:32:11;13.40;99.90
10306;DHT22;5198;52.382;9.020;2023-07-22T04:36:14;13.50;99.90
10306;DHT22;5198;52.382;9.020;2023-07-22T04:40:18;13.50;99.90
10306;DHT22;5198;52.382;9.020;2023-07-22T04:44:21;13.50;99.90
10306;DHT22;5198;52.382;9.020;2023-07-22T04:48:27;13.50;99.90
10306;DHT22;5198;52.382;9.020;2023-07-22T04:52:30;13.60;99.90
10306;DHT22;5198;52.382;9.020;2023-07-22T04:56:33;13.60;99.90
10306;DHT22;5198;52.382;9.020;2023-07-22T05:00:36;13.60;99.90
10306;DHT22;5198;52.382;9.020;2023-07-22T05:04:41;13.70;99.90
10306;DHT22;5198;52.382;9.020;2023-07-22T05:08:44;13.70;99.90
10306;DHT22;5198;52.382;9.020;2023-07-22T05:12:46;13.80;99.90
10306;DHT22;5198;52.382;9.020;2023-07-22T05:16:49;13.80;99.90
10306;DHT22;5198;52.382;9.020;2023-07-22T05:20:54;13.90;99.90
10306;DHT22;5198;52.382;9.020;2023-07-22T05:24:57;13.90;99.90
10306;DHT22;5198;52.382;9.020;2023-07-22T05:29:00;14.00;99.90
10306;DHT22;5198;52.382;9.020;2023-07-22T05:33:03;14.10;99.90
10306;DHT22;5198;52.382;9.020;2023-07-22T05:37:08;14.20;99.90
10306;DHT22;5198;52.382;9.020;2023-07-22T05:41:11;14.20;99.90
10306;DHT22;5198;52.382;9.020;2023-07-22T05:45:14;14.30;99.90
10306;DHT22;5198;52.382;9.020;2023-07-22T05:49:18;14.40;99.90
10306;DHT22;5198;52.382;9.020;2023-07-22T05:53:25;14.40;99.90
10306;DHT22;5198;52.382;9.020;2023-07-22T05:57:28;14.50;99.90
10306;DHT22;5198;52.382;9.020;2023-07-22T06:01:32;14.60;99.90
10306;DHT22;5198;52.382;9.020;2023-07-22T06:05:43;14.60;99.90
10306;DHT22;5198;52.382;9.020;2023-07-22T06:09:47;14.70;99.90
10306;DHT22;5198;52.382;9.020;2023-07-22T06:13:50;14.80;99.90
10306;DHT22;5198;52.382;9.020;2023-07-22T06:17:53;14.90;99.90
10306;DHT22;5198;52.382;9.020;2023-07-22T06:21:56;14.90;99.90
10306;DHT22;5198;52.382;9.020;2023-07-22T06:26:00;15.00;99.90
10306;DHT22;5198;52.382;9.020;2023-07-22T06:30:04;15.10;99.90
10306;DHT22;5198;52.382;9.020;2023-07-22T06:34:07;15.20;99.90
10306;DHT22;5198;52.382;9.020;2023-07-22T06:38:10;15.40;99.90
10306;DHT22;5198;52.382;9.020;2023-07-22T06:42:14;15.50;99.90
10306;DHT22;5198;52.382;9.020;2023-07-22T06:46:17;15.60;99.90
10306;DHT22;5198;52.382;9.020;2023-07-22T06:50:20;15.60;99.90
10306;DHT22;5198;52.382;9.020;2023-07-22T06:54:23;15.70;99.90
10306;DHT22;5198;52.382;9.020;2023-07-22T06:58:28;15.80;99.90
10306;DHT22;5198;52.382;9.020;2023-07-22T07:02:31;15.90;99.90
10306;DHT22;5198;52.382;9.020;2023-07-22T07:06:34;16.10;99.90
10306;DHT22;5198;52.382;9.020;2023-07-22T07:10:37;16.20;99.90
10306;DHT22;5198;52.382;9.020;2023-07-22T07:14:42;16.30;99.90
10306;DHT22;5198;52.382;9.020;2023-07-22T07:18:45;16.40;99.90
10306;DHT22;5198;52.382;9.020;2023-07-22T07:22:53;16.50;99.90
10306;DHT22;5198;52.382;9.020;2023-07-22T07:26:56;16.60;99.90
10306;DHT22;5198;52.382;9.020;2023-07-22T07:31:08;16.70;99.90
10306;DHT22;5198;52.382;9.020;2023-07-22T07:35:11;16.90;99.90
10306;DHT22;5198;52.382;9.020;2023-07-22T07:39:14;17.00;99.90
10306;DHT22;5198;52.382;9.020;2023-07-22T07:51:28;17.30;99.90
10306;DHT22;5198;52.382;9.020;2023-07-22T07:55:31;17.40;99.90
10306;DHT22;5198;52.382;9.020;2023-07-22T08:03:58;17.60;99.90
10306;DHT22;5198;52.382;9.020;2023-07-22T08:08:03;17.70;99.90
10306;DHT22;5198;52.382;9.020;2023-07-22T08:12:06;17.90;99.90
10306;DHT22;5198;52.382;9.020;2023-07-22T08:16:10;18.00;99.90
10306;DHT22;5198;52.382;9.020;2023-07-22T08:20:14;18.10;99.90
10306;DHT22;5198;52.382;9.020;2023-07-22T08:24:18;18.20;99.90
10306;DHT22;5198;52.382;9.020;2023-07-22T08:28:39;18.20;99.90
10306;DHT22;5198;52.382;9.020;2023-07-22T08:32:41;18.30;99.90
10306;DHT22;5198;52.382;9.020;2023-07-22T08:36:44;18.50;99.90
10306;DHT22;5198;52.382;9.020;2023-07-22T08:40:49;18.50;99.90
10306;DHT22;5198;52.382;9.020;2023-07-22T08:49:27;18.70;99.90
10306;DHT22;5198;52.382;9.020;2023-07-22T08:53:30;18.80;99.90
10306;DHT22;5198;52.382;9.020;2023-07-22T08:57:36;18.90;99.90
10306;DHT22;5198;52.382;9.020;2023-07-22T09:01:39;18.90;99.90
10306;DHT22;5198;52.382;9.020;2023-07-22T09:05:42;19.10;99.90
10306;DHT22;5198;52.382;9.020;2023-07-22T09:09:47;19.20;99.90
10306;DHT22;5198;52.382;9.020;2023-07-22T09:13:51;19.30;99.90
10306;DHT22;5198;52.382;9.020;2023-07-22T09:17:55;19.40;99.90
10306;DHT22;5198;52.382;9.020;2023-07-22T09:21:58;19.50;99.90
10306;DHT22;5198;52.382;9.020;2023-07-22T09:26:08;19.60;99.90
10306;DHT22;5198;52.382;9.020;2023-07-22T09:30:22;19.70;99.90
10306;DHT22;5198;52.382;9.020;2023-07-22T09:34:26;19.80;99.90
10306;DHT22;5198;52.382;9.020;2023-07-22T09:38:29;20.00;99.90
10306;DHT22;5198;52.382;9.020;2023-07-22T09:47:10;20.30;99.90
10306;DHT22;5198;52.382;9.020;2023-07-22T09:51:14;20.40;99.90
10306;DHT22;5198;52.382;9.020;2023-07-22T09:55:18;20.40;99.90
10306;DHT22;5198;52.382;9.020;2023-07-22T10:03:56;20.50;99.90
10306;DHT22;5198;52.382;9.020;2023-07-22T10:07:59;20.60;99.90
10306;DHT22;5198;52.382;9.020;2023-07-22T10:12:03;20.60;99.90
10306;DHT22;5198;52.382;9.020;2023-07-22T10:16:06;20.70;99.90
10306;DHT22;5198;52.382;9.020;2023-07-22T10:20:11;20.70;99.90
10306;DHT22;5198;52.382;9.020;2023-07-22T10:24:16;20.80;99.90
10306;DHT22;5198;52.382;9.020;2023-07-22T10:28:21;20.90;99.90
10306;DHT22;5198;52.382;9.020;2023-07-22T10:32:24;21.10;99.90
10306;DHT22;5198;52.382;9.020;2023-07-22T10:36:29;21.30;99.90
10306;DHT22;5198;52.382;9.020;2023-07-22T10:40:44;21.40;99.90
10306;DHT22;5198;52.382;9.020;2023-07-22T10:44:47;21.40;99.90
10306;DHT22;5198;52.382;9.020;2023-07-22T10:48:58;21.40;99.90
10306;DHT22;5198;52.382;9.020;2023-07-22T10:53:10;21.40;99.90
10306;DHT22;5198;52.382;9.020;2023-07-22T11:01:36;21.60;99.90
10306;DHT22;5198;52.382;9.020;2023-07-22T11:05:49;21.70;99.90
10306;DHT22;5198;52.382;9.020;2023-07-22T11:09:55;21.80;99.90
10306;DHT22;5198;52.382;9.020;2023-07-22T11:14:11;21.90;99.90
10306;DHT22;5198;52.382;9.020;2023-07-22T11:18:22;21.90;99.90
10306;DHT22;5198;52.382;9.020;2023-07-22T11:22:25;21.80;99.90
10306;DHT22;5198;52.382;9.020;2023-07-22T11:26:32;21.70;99.90
10306;DHT22;5198;52.382;9.020;2023-07-22T11:30:35;21.60;99.90
10306;DHT22;5198;52.382;9.020;2023-07-22T11:34:38;21.20;99.90
10306;DHT22;5198;52.382;9.020;2023-07-22T11:43:07;21.00;99.90
10306;DHT22;5198;52.382;9.020;2023-07-22T11:47:10;21.00;99.90
10306;DHT22;5198;52.382;9.020;2023-07-22T11:51:13;21.00;99.90
10306;DHT22;5198;52.382;9.020;2023-07-22T11:59:53;21.20;99.90
10306;DHT22;5198;52.382;9.020;2023-07-22T12:03:56;21.30;99.90
10306;DHT22;5198;52.382;9.020;2023-07-22T12:07:59;21.40;99.90
10306;DHT22;5198;52.382;9.020;2023-07-22T12:12:02;21.50;99.90
10306;DHT22;5198;52.382;9.020;2023-07-22T12:16:06;21.70;99.90
10306;DHT22;5198;52.382;9.020;2023-07-22T12:20:10;21.80;99.90
10306;DHT22;5198;52.382;9.020;2023-07-22T12:24:13;21.80;99.90
10306;DHT22;5198;52.382;9.020;2023-07-22T12:28:16;21.80;99.90
10306;DHT22;5198;52.382;9.020;2023-07-22T12:32:20;21.70;99.90
10306;DHT22;5198;52.382;9.020;2023-07-22T12:36:23;21.60;99.90
10306;DHT22;5198;52.382;9.020;2023-07-22T12:40:27;21.60;99.90
10306;DHT22;5198;52.382;9.020;2023-07-22T12:44:31;21.60;99.90
10306;DHT22;5198;52.382;9.020;2023-07-22T12:48:35;21.70;99.90
10306;DHT22;5198;52.382;9.020;2023-07-22T12:52:38;21.70;99.90
10306;DHT22;5198;52.382;9.020;2023-07-22T12:56:41;21.80;99.90
10306;DHT22;5198;52.382;9.020;2023-07-22T13:05:19;21.80;99.90
10306;DHT22;5198;52.382;9.020;2023-07-22T13:09:23;21.80;99.90
10306;DHT22;5198;52.382;9.020;2023-07-22T13:13:26;21.90;99.90
10306;DHT22;5198;52.382;9.020;2023-07-22T13:17:29;21.90;99.90
10306;DHT22;5198;52.382;9.020;2023-07-22T13:21:33;22.00;99.90
10306;DHT22;5198;52.382;9.020;2023-07-22T13:25:36;22.10;99.90
10306;DHT22;5198;52.382;9.020;2023-07-22T13:29:53;22.20;99.90
10306;DHT22;5198;52.382;9.020;2023-07-22T13:33:56;22.30;99.90
10306;DHT22;5198;52.382;9.020;2023-07-22T13:38:01;22.40;99.90
10306;DHT22;5198;52.382;9.020;2023-07-22T13:42:04;22.40;99.90
10306;DHT22;5198;52.382;9.020;2023-07-22T13:46:07;22.50;99.90
10306;DHT22;5198;52.382;9.020;2023-07-22T13:50:10;22.60;99.90
10306;DHT22;5198;52.382;9.020;2023-07-22T13:54:14;22.70;99.90
10306;DHT22;5198;52.382;9.020;2023-07-22T13:58:17;22.80;99.90
10306;DHT22;5198;52.382;9.020;2023-07-22T14:02:21;22.80;99.90
10306;DHT22;5198;52.382;9.020;2023-07-22T14:06:24;22.90;99.90
10306;DHT22;5198;52.382;9.020;2023-07-22T14:10:29;22.90;99.90
10306;DHT22;5198;52.382;9.020;2023-07-22T14:14:33;22.90;99.40
10306;DHT22;5198;52.382;9.020;2023-07-22T14:18:36;22.90;99.70
10306;DHT22;5198;52.382;9.020;2023-07-22T14:22:38;22.90;99.10
10306;DHT22;5198;52.382;9.020;2023-07-22T14:26:43;22.90;99.90
10306;DHT22;5198;52.382;9.020;2023-07-22T14:30:46;23.00;99.80
10306;DHT22;5198;52.382;9.020;2023-07-22T14:34:49;23.00;99.60
10306;DHT22;5198;52.382;9.020;2023-07-22T14:38:52;23.00;98.80
10306;DHT22;5198;52.382;9.020;2023-07-22T14:42:56;23.00;99.00
10306;DHT22;5198;52.382;9.020;2023-07-22T14:46:59;23.10;99.30
10306;DHT22;5198;52.382;9.020;2023-07-22T14:51:02;23.20;97.80
10306;DHT22;5198;52.382;9.020;2023-07-22T14:55:05;23.10;98.30
10306;DHT22;5198;52.382;9.020;2023-07-22T14:59:11;23.10;99.70
10306;DHT22;5198;52.382;9.020;2023-07-22T15:03:13;23.00;97.20
10306;DHT22;5198;52.382;9.020;2023-07-22T15:07:17;22.90;97.80
10306;DHT22;5198;52.382;9.020;2023-07-22T15:11:20;22.70;97.50
10306;DHT22;5198;52.382;9.020;2023-07-22T15:15:24;22.60;97.10
10306;DHT22;5198;52.382;9.020;2023-07-22T15:19:27;22.40;97.90
10306;DHT22;5198;52.382;9.020;2023-07-22T15:23:30;22.30;97.70
10306;DHT22;5198;52.382;9.020;2023-07-22T15:27:34;22.20;97.70
10306;DHT22;5198;52.382;9.020;2023-07-22T15:35:42;22.10;98.10
10306;DHT22;5198;52.382;9.020;2023-07-22T15:39:45;22.00;98.80
10306;DHT22;5198;52.382;9.020;2023-07-22T15:43:48;21.90;99.10
10306;DHT22;5198;52.382;9.020;2023-07-22T15:47:51;21.90;99.40
10306;DHT22;5198;52.382;9.020;2023-07-22T15:51:55;21.80;99.40
10306;DHT22;5198;52.382;9.020;2023-07-22T15:55:58;21.70;99.70
10306;DHT22;5198;52.382;9.020;2023-07-22T16:00:01;21.60;99.60
10306;DHT22;5198;52.382;9.020;2023-07-22T16:04:04;21.50;99.80
10306;DHT22;5198;52.382;9.020;2023-07-22T16:08:08;21.40;99.90
10306;DHT22;5198;52.382;9.020;2023-07-22T16:12:11;21.30;99.90
10306;DHT22;5198;52.382;9.020;2023-07-22T16:16:14;21.20;99.90
10306;DHT22;5198;52.382;9.020;2023-07-22T16:20:17;21.20;99.90
10306;DHT22;5198;52.382;9.020;2023-07-22T16:24:28;21.10;99.90
10306;DHT22;5198;52.382;9.020;2023-07-22T16:28:31;21.00;99.90
10306;DHT22;5198;52.382;9.020;2023-07-22T16:32:34;21.00;99.90
10306;DHT22;5198;52.382;9.020;2023-07-22T16:36:37;20.90;99.90
10306;DHT22;5198;52.382;9.020;2023-07-22T16:40:41;20.90;99.90
10306;DHT22;5198;52.382;9.020;2023-07-22T16:44:44;20.90;99.90
10306;DHT22;5198;52.382;9.020;2023-07-22T16:48:47;20.80;99.90
10306;DHT22;5198;52.382;9.020;2023-07-22T16:52:51;20.80;99.90
10306;DHT22;5198;52.382;9.020;2023-07-22T16:56:55;20.80;99.90
10306;DHT22;5198;52.382;9.020;2023-07-22T17:00:58;20.80;99.90
10306;DHT22;5198;52.382;9.020;2023-07-22T17:05:01;20.80;99.90
10306;DHT22;5198;52.382;9.020;2023-07-22T17:09:06;20.80;99.90
10306;DHT22;5198;52.382;9.020;2023-07-22T17:13:10;20.80;99.90
10306;DHT22;5198;52.382;9.020;2023-07-22T17:17:13;20.80;99.90
10306;DHT22;5198;52.382;9.020;2023-07-22T17:21:16;20.70;99.90
10306;DHT22;5198;52.382;9.020;2023-07-22T17:25:19;20.70;99.90
10306;DHT22;5198;52.382;9.020;2023-07-22T17:29:24;20.70;99.90
10306;DHT22;5198;52.382;9.020;2023-07-22T17:33:27;20.70;99.90
10306;DHT22;5198;52.382;9.020;2023-07-22T17:37:30;20.70;99.90
10306;DHT22;5198;52.382;9.020;2023-07-22T17:41:33;20.60;99.90
10306;DHT22;5198;52.382;9.020;2023-07-22T17:45:37;20.50;99.90
10306;DHT22;5198;52.382;9.020;2023-07-22T17:49:40;20.50;99.90
10306;DHT22;5198;52.382;9.020;2023-07-22T17:53:44;20.40;99.90
10306;DHT22;5198;52.382;9.020;2023-07-22T17:57:47;20.30;99.90
10306;DHT22;5198;52.382;9.020;2023-07-22T18:01:51;20.20;99.90
10306;DHT22;5198;52.382;9.020;2023-07-22T18:05:54;20.10;99.90
10306;DHT22;5198;52.382;9.020;2023-07-22T18:09:59;20.00;99.90
10306;DHT22;5198;52.382;9.020;2023-07-22T18:14:02;19.90;99.90
10306;DHT22;5198;52.382;9.020;2023-07-22T18:18:06;19.70;99.90
10306;DHT22;5198;52.382;9.020;2023-07-22T18:22:11;19.60;99.90
10306;DHT22;5198;52.382;9.020;2023-07-22T18:26:14;19.60;99.90
10306;DHT22;5198;52.382;9.020;2023-07-22T18:30:18;19.50;99.90
10306;DHT22;5198;52.382;9.020;2023-07-22T18:34:22;19.40;99.90
10306;DHT22;5198;52.382;9.020;2023-07-22T18:38:25;19.40;99.90
10306;DHT22;5198;52.382;9.020;2023-07-22T18:42:30;19.30;99.90
10306;DHT22;5198;52.382;9.020;2023-07-22T18:46:33;19.20;99.90
10306;DHT22;5198;52.382;9.020;2023-07-22T18:50:37;19.10;99.90
10306;DHT22;5198;52.382;9.020;2023-07-22T18:54:40;19.10;99.90
10306;DHT22;5198;52.382;9.020;2023-07-22T18:58:45;19.00;99.90
10306;DHT22;5198;52.382;9.020;2023-07-22T19:02:48;18.90;99.90
10306;DHT22;5198;52.382;9.020;2023-07-22T19:06:52;18.90;99.90
10306;DHT22;5198;52.382;9.020;2023-07-22T19:10:55;18.90;99.90
10306;DHT22;5198;52.382;9.020;2023-07-22T19:14:58;18.80;99.90
10306;DHT22;5198;52.382;9.020;2023-07-22T19:19:01;18.80;99.90
10306;DHT22;5198;52.382;9.020;2023-07-22T19:23:05;18.70;99.90
10306;DHT22;5198;52.382;9.020;2023-07-22T19:27:08;18.70;99.90
10306;DHT22;5198;52.382;9.020;2023-07-22T19:31:19;18.60;99.90
10306;DHT22;5198;52.382;9.020;2023-07-22T19:35:22;18.60;99.90
10306;DHT22;5198;52.382;9.020;2023-07-22T19:39:26;18.50;99.90
10306;DHT22;5198;52.382;9.020;2023-07-22T19:43:29;18.50;99.90
10306;DHT22;5198;52.382;9.020;2023-07-22T19:47:32;18.40;99.90
10306;DHT22;5198;52.382;9.020;2023-07-22T19:51:36;18.40;99.90
10306;DHT22;5198;52.382;9.020;2023-07-22T19:55:41;18.30;99.90
10306;DHT22;5198;52.382;9.020;2023-07-22T19:59:43;18.30;99.90
10306;DHT22;5198;52.382;9.020;2023-07-22T20:03:49;18.30;99.90
10306;DHT22;5198;52.382;9.020;2023-07-22T20:07:52;18.20;99.90
10306;DHT22;5198;52.382;9.020;2023-07-22T20:11:57;18.20;99.90
10306;DHT22;5198;52.382;9.020;2023-07-22T20:16:00;18.20;99.90
10306;DHT22;5198;52.382;9.020;2023-07-22T20:20:04;18.10;99.90
10306;DHT22;5198;52.382;9.020;2023-07-22T20:24:07;18.10;99.90
10306;DHT22;5198;52.382;9.020;2023-07-22T20:28:11;18.10;99.90
10306;DHT22;5198;52.382;9.020;2023-07-22T20:32:14;18.00;99.90
10306;DHT22;5198;52.382;9.020;2023-07-22T20:36:31;18.00;99.90
10306;DHT22;5198;52.382;9.020;2023-07-22T20:40:34;18.00;99.90
10306;DHT22;5198;52.382;9.020;2023-07-22T20:44:38;18.00;99.90
10306;DHT22;5198;52.382;9.020;2023-07-22T20:48:41;18.00;99.90
10306;DHT22;5198;52.382;9.020;2023-07-22T20:52:44;17.90;99.90
10306;DHT22;5198;52.382;9.020;2023-07-22T20:56:47;17.90;99.90
10306;DHT22;5198;52.382;9.020;2023-07-22T21:00:52;17.90;99.90
10306;DHT22;5198;52.382;9.020;2023-07-22T21:04:56;17.90;99.90
10306;DHT22;5198;52.382;9.020;2023-07-22T21:08:59;17.80;99.90
10306;DHT22;5198;52.382;9.020;2023-07-22T21:13:03;17.80;99.90
10306;DHT22;5198;52.382;9.020;2023-07-22T21:17:08;17.80;99.90
10306;DHT22;5198;52.382;9.020;2023-07-22T21:21:12;17.80;99.90
10306;DHT22;5198;52.382;9.020;2023-07-22T21:25:16;17.80;99.90
10306;DHT22;5198;52.382;9.020;2023-07-22T21:29:19;17.70;99.90
10306;DHT22;5198;52.382;9.020;2023-07-22T21:33:24;17.70;99.90
10306;DHT22;5198;52.382;9.020;2023-07-22T21:37:27;17.70;99.90
10306;DHT22;5198;52.382;9.020;2023-07-22T21:41:31;17.70;99.90
10306;DHT22;5198;52.382;9.020;2023-07-22T21:45:34;17.60;99.90
10306;DHT22;5198;52.382;9.020;2023-07-22T21:49:38;17.60;99.90
10306;DHT22;5198;52.382;9.020;2023-07-22T21:53:41;17.60;99.90
10306;DHT22;5198;52.382;9.020;2023-07-22T21:57:44;17.60;99.90
10306;DHT22;5198;52.382;9.020;2023-07-22T22:01:48;17.50;99.90
10306;DHT22;5198;52.382;9.020;2023-07-22T22:05:52;17.50;99.90
10306;DHT22;5198;52.382;9.020;2023-07-22T22:09:59;17.50;99.90
10306;DHT22;5198;52.382;9.020;2023-07-22T22:14:03;17.40;99.90
10306;DHT22;5198;52.382;9.020;2023-07-22T22:18:07;17.40;99.90
10306;DHT22;5198;52.382;9.020;2023-07-22T22:22:11;17.40;99.90
10306;DHT22;5198;52.382;9.020;2023-07-22T22:26:14;17.30;99.90
10306;DHT22;5198;52.382;9.020;2023-07-22T22:30:17;17.30;99.90
10306;DHT22;5198;52.382;9.020;2023-07-22T22:34:20;17.30;99.90
10306;DHT22;5198;52.382;9.020;2023-07-22T22:38:24;17.30;99.90
10306;DHT22;5198;52.382;9.020;2023-07-22T22:42:27;17.30;99.90
10306;DHT22;5198;52.382;9.020;2023-07-22T22:46:31;17.20;99.90
10306;DHT22;5198;52.382;9.020;2023-07-22T22:50:34;17.20;99.90
10306;DHT22;5198;52.382;9.020;2023-07-22T22:54:39;17.20;99.90
10306;DHT22;5198;52.382;9.020;2023-07-22T22:58:41;17.20;99.90
10306;DHT22;5198;52.382;9.020;2023-07-22T23:02:44;17.10;99.90
10306;DHT22;5198;52.382;9.020;2023-07-22T23:06:48;17.10;99.90
10306;DHT22;5198;52.382;9.020;2023-07-22T23:10:53;17.10;99.90
10306;DHT22;5198;52.382;9.020;2023-07-22T23:14:56;17.10;99.90
10306;DHT22;5198;52.382;9.020;2023-07-22T23:19:00;17.00;99.90
10306;DHT22;5198;52.382;9.020;2023-07-22T23:23:16;17.00;99.90
10306;DHT22;5198;52.382;9.020;2023-07-22T23:27:20;17.00;99.90
10306;DHT22;5198;52.382;9.020;2023-07-22T23:31:23;17.00;99.90
10306;DHT22;5198;52.382;9.020;2023-07-22T23:35:27;16.90;99.90
10306;DHT22;5198;52.382;9.020;2023-07-22T23:39:30;16.90;99.90
10306;DHT22;5198;52.382;9.020;2023-07-22T23:43:34;16.90;99.90
10306;DHT22;5198;52.382;9.020;2023-07-22T23:47:37;16.90;99.90
10306;DHT22;5198;52.382;9.020;2023-07-22T23:56:05;16.80;99.90
